Terminal Aerodrome Forecast
Issued by NWS

Home | Current Version | Previous Version | Graphics & Text | Print | Product List | Glossary On
Versions: 1 2 3 4 5 6 7 8 9 10 11 12 13 14 15 16 17
000
FTUS43 KICT 220541 AAA
TAFSLN
TAF AMD
KSLN 220541Z 2206/2306 34007KT 6SM -SHRA OVC008
     FM221000 34008KT P6SM OVC008
     FM221600 03008KT P6SM OVC015
     FM230400 02004KT P6SM BKN150=

USA.gov is the U.S. government's official web portal to all federal, state and local government web resources and services.